Tuesday, August 21, 2018, 8:52 AM CDT
Back to Local

KARR, Chicago Aurora Municipal

Location: Sugar Grove, IL, United States Lat: 41.767
Local Time: 8:52 AM CDT (13:52 GMT) Lon: -88.467
Time Zone: US/Central Elev: 711 ft

Show me the last for .
Show Decoded

2018-08-21 08:11 METAR KARR 211311Z 29003KT 1SM RA BR BKN004 BKN029 OVC080 21/21 A2980 RMK AO2
                 RAB1253 P0011 T02060206 =
2018-08-21 08:01 METAR KARR 211301Z 30003KT 3/4SM +RA BR BKN004 OVC016 20/20 A2980 RMK AO2
                 RAB1253 P0007 T02000200 =
2018-08-21 07:52 METAR KARR 211252Z 29004KT 2SM BR OVC004 20/20 A2980 RMK AO2 SLP086 T02000200 =
2018-08-21 07:43 METAR KARR 211243Z 31003KT 2SM BR OVC004 20/20 A2979 RMK AO2 T02000200 =
2018-08-21 07:16 METAR KARR 211216Z 30003KT 1 3/4SM BR OVC004 19/19 A2979 RMK AO2 T01940194 =
2018-08-21 07:02 METAR KARR 211202Z 00000KT 3SM BR OVC004 19/19 A2978 RMK AO2 T01940194 =
2018-08-21 06:52 METAR KARR 211152Z 00000KT 2 1/2SM BR OVC004 19/19 A2978 RMK AO2 SLP080 70015
                 T01940194 10194 20183 53010 =
2018-08-21 06:45 METAR KARR 211145Z AUTO 29003KT 2 1/2SM BR BKN004 OVC025 19/19 A2978 RMK AO2
                 T01940194 =
2018-08-21 06:35 METAR KARR 211135Z AUTO 30003KT 3SM BR BKN003 OVC025 19/19 A2977 RMK AO2
                 T01890189 =
2018-08-21 06:32 METAR KARR 211132Z AUTO 31003KT 2 1/2SM BR SCT003 OVC025 19/19 A2977 RMK AO2
                 T01890189 =
2018-08-21 06:22 METAR KARR 211122Z AUTO 00000KT 2SM BR OVC024 19/19 A2976 RMK AO2 T01890189 =
2018-08-21 06:15 METAR KARR 211115Z AUTO 00000KT 3SM BR FEW002 OVC024 19/19 A2976 RMK AO2
                 T01890189 =
2018-08-21 06:10 METAR KARR 211110Z AUTO 00000KT 1 3/4SM BR FEW002 OVC023 19/19 A2976 RMK AO2
                 T01890189 =
2018-08-21 06:01 METAR KARR 211101Z AUTO 00000KT 3/4SM BR FEW002 OVC025 19/19 A2976 RMK AO2
                 T01890189 =
2018-08-21 05:52 METAR KARR 211052Z AUTO 00000KT 1/2SM FG BKN002 OVC023 19/18 A2976 RMK AO2
                 SLP072 T01890183 =
2018-08-21 05:47 METAR KARR 211047Z AUTO 00000KT 1/2SM FG BKN002 OVC023 18/18 A2976 RMK AO2 =
2018-08-21 05:37 METAR KARR 211037Z AUTO 00000KT 1/4SM FG VV002 18/18 A2976 RMK AO2 T01830183 =
2018-08-21 05:09 METAR KARR 211009Z AUTO 00000KT 1/2SM FG VV002 18/18 A2975 RMK AO2 T01830183 =
2018-08-21 04:52 METAR KARR 210952Z AUTO 32003KT 1/4SM FG VV002 18/18 A2975 RMK AO2 SLP069
                 T01830183 =
2018-08-21 04:49 METAR KARR 210949Z AUTO 00000KT 1/4SM FG VV002 18/18 A2975 RMK AO2 =
2018-08-21 04:41 METAR KARR 210941Z AUTO 00000KT 1/4SM FG VV001 18/18 A2975 RMK AO2 T01830183 =
2018-08-21 03:52 METAR KARR 210852Z AUTO 00000KT 1/4SM FG VV002 18/18 A2976 RMK AO2 SLP074
                 T01830183 55005 =
2018-08-21 03:24 METAR KARR 210824Z AUTO 00000KT 1/4SM FG VV002 18/18 A2976 RMK AO2 T01830183 =
2018-08-21 03:01 METAR KARR 210801Z AUTO 00000KT 3/4SM BR BKN003 BKN070 19/19 A2976 RMK AO2
                 T01890189 =
2018-08-21 02:57 METAR KARR 210757Z AUTO 00000KT 1 3/4SM BR SCT003 BKN070 19/19 A2976 RMK AO2
                 T01890189 =
2018-08-21 02:52 METAR KARR 210752Z AUTO 29003KT 3SM BR FEW003 SCT070 BKN085 19/19 A2976 RMK AO2
                 SLP072 T01890189 =
2018-08-21 01:52 METAR KARR 210652Z AUTO 07003KT 4SM BR OVC080 19/19 A2977 RMK AO2 SLP077
                 T01940189 =
2018-08-20 23:52 METAR KARR 210452Z AUTO 08003KT 8SM FEW047 OVC070 21/20 A2978 RMK AO2 SLP079
                 T02060200 TSNO =
2018-08-20 22:52 METAR KARR 210352Z AUTO 01003KT 7SM SCT055 20/19 A2979 RMK AO2 SLP083 T02000194
                 =
2018-08-20 21:52 METAR KARR 210252Z AUTO 00000KT 8SM CLR 20/20 A2979 RMK AO2 SLP083 T02000200
                 50008 =
2018-08-20 20:52 METAR KARR 210152Z AUTO 15005KT 10SM FEW050 21/21 A2979 RMK AO2 SLP084 T02110206
                 =
2018-08-20 19:52 METAR KARR 210052Z 18004KT 9SM SCT055 BKN120 22/21 A2978 RMK AO2 LTG DSNT N-E
                 SLP079 T02170211 =
2018-08-20 19:13 METAR KARR 210013Z 12006KT 10SM SCT041 BKN055 BKN090 22/21 A2978 RMK AO2 LTG
                 DSNT NE-SE T02220206 =
2018-08-20 18:52 METAR KARR 202352Z 19005KT 9SM VCTS FEW026 SCT042 BKN050 23/21 A2977 RMK AO2 LTG
                 DSNT ALQDS RAE33 TSB2256E33 SLP075 P0012 60012 T02280211 10272 20222 55003 =
2018-08-20 18:48 METAR KARR 202348Z 19005KT 9SM FEW025 SCT042 BKN055 22/21 A2976 RMK AO2 LTG DSNT
                 E AND SE AND NW RAE33 TSB2256E33 P0012 =
2018-08-20 18:39 METAR KARR 202339Z 12006KT 10SM VCTS FEW020 BKN029 OVC065 22/21 A2976 RMK AO2
                 LTG DSNT E AND SE AND NW RAE33 TSB2256E33 P0012 T02220206 =
2018-08-20 18:22 METAR KARR 202322Z 15008KT 4SM -TSRA BR FEW020 BKN029 OVC065 23/21 A2975 RMK AO2
                 LTG DSNT SE AND NW TSB2256 P0012 T02280211 =
2018-08-20 18:13 METAR KARR 202313Z 10011KT 2 1/2SM TSRA BR SCT020 BKN031 OVC090 23/22 A2975 RMK
                 AO2 LTG DSNT SE-W TSB2256 P0011 T02280217 =
2018-08-20 18:03 METAR KARR 202303Z 11011G20KT 1 3/4SM +TSRA BR SCT020 BKN029 OVC110 23/22 A2976
                 RMK AO2 LTG DSNT SE AND S TSB2256 P0007 T02330217 =
2018-08-20 17:57 METAR KARR 202257Z 08009KT 4SM -TSRA BR BKN023 BKN040 BKN100 24/22 A2975 RMK AO2
                 LTG DSNT SE AND S TSB56 P0001 T02440222 =
2018-08-20 17:52 METAR KARR 202252Z 08010KT 5SM VCTS -RA BR SCT025 BKN040 BKN075 24/22 A2974 RMK
                 AO2 LTG DSNT SE AND S RAB42 SLP066 P0000 T02440222 =
2018-08-20 17:45 METAR KARR 202245Z 08009KT 7SM VCTS -RA SCT031 SCT047 BKN075 25/22 A2976 RMK AO2
                 LTG DSNT S AND W RAB42 P0000 T02500222 =
2018-08-20 16:52 METAR KARR 202152Z 11008KT 8SM FEW030 BKN037 BKN044 26/22 A2976 RMK AO2 LTG DSNT
                 SW AND W SLP074 T02560217 =
2018-08-20 15:52 METAR KARR 202052Z 11011G18KT 9SM BKN018 BKN027 OVC049 26/22 A2978 RMK AO2
                 SLP077 T02610217 58018 =
2018-08-20 14:52 METAR KARR 201952Z 12010G19KT 8SM BKN018 BKN027 OVC047 25/22 A2980 RMK AO2
                 SLP087 T02500217 =
2018-08-20 14:10 METAR KARR 201910Z 12012KT 7SM BKN015 OVC025 24/22 A2982 RMK AO2 T02440217 =
2018-08-20 13:52 METAR KARR 201852Z 12011KT 8SM BKN011 BKN016 OVC030 25/22 A2982 RMK AO2 SLP093
                 T02500217 =
2018-08-20 12:52 METAR KARR 201752Z 13014G21KT 7SM BKN013 BKN027 OVC034 23/22 A2983 RMK AO2 RAE19
                 SLP097 P0000 60003 T02330217 10239 20217 58006 =
2018-08-20 11:52 METAR KARR 201652Z 10012KT 7SM -RA BKN022 BKN044 OVC090 23/21 A2984 RMK AO2
                 SLP099 P0003 T02280206 =
2018-08-20 10:52 METAR KARR 201552Z 10011KT 6SM -RA FEW040 SCT070 BKN100 23/20 A2985 RMK AO2
                 RAB43 SLP102 P0000 T02330200 =
2018-08-20 09:52 METAR KARR 201452Z 07009KT 7SM FEW090 BKN110 23/19 A2985 RMK AO2 SLP104
                 T02330189 58017 =

Support USWX by starting your Amazon purchase here.